Time;durP1;ratioP1;P1;durP2;ratioP2;P2;SDS_P1;SDS_P2;PMS_P1;PMS_P2;Temp;Humidity;BMP_temperature;BMP_pressure;BME280_temperature;BME280_humidity;BME280_pressure;Samples;Min_cycle;Max_cycle;Signal;HPM_P1;HPM_P2
2022/06/29 00:01:13;;;;;;;0.30;0.30;;;19.30;99.90;19.70;101362.00;;;;5034908;28;20191;-63
2022/06/29 00:03:59;;;;;;;0.30;0.30;;;19.10;99.90;20.10;101360.00;;;;5035664;28;20271;-62
2022/06/29 00:07:03;;;;;;;0.30;0.30;;;19.20;99.90;20.20;101367.00;;;;5035791;28;20176;-63
2022/06/29 00:10:07;;;;;;;0.40;0.40;;;19.20;99.90;20.30;101363.00;;;;5034393;28;20182;-63
2022/06/29 00:12:58;;;;;;;0.40;0.40;;;19.20;99.90;20.20;101365.00;;;;5034562;28;20210;-63
2022/06/29 00:16:00;;;;;;;0.40;0.40;;;19.20;99.90;20.00;101361.00;;;;5032550;28;20197;-63
2022/06/29 00:19:01;;;;;;;0.40;0.40;;;19.10;99.90;19.70;101350.00;;;;5035787;28;20194;-62
2022/06/29 00:22:08;;;;;;;0.50;0.50;;;19.00;99.90;19.70;101345.00;;;;5034456;28;20189;-62
2022/06/29 00:25:17;;;;;;;0.40;0.40;;;18.90;99.90;20.10;101347.00;;;;5032520;28;20200;-63
2022/06/29 00:28:10;;;;;;;0.40;0.40;;;19.10;99.90;19.80;101331.00;;;;5034689;28;20269;-63
2022/06/29 00:31:00;;;;;;;0.40;0.40;;;19.00;99.90;20.00;101342.00;;;;5035084;28;20179;-63
2022/06/29 00:34:01;;;;;;;0.30;0.30;;;19.00;99.90;19.80;101344.00;;;;5035163;28;20171;-62
2022/06/29 00:37:22;;;;;;;0.40;0.40;;;19.00;99.90;20.00;101289.00;;;;5034898;28;20183;-63
2022/06/29 00:40:14;;;;;;;0.40;0.40;;;18.90;99.90;20.20;101336.00;;;;5034005;28;20179;-64
2022/06/29 00:43:24;;;;;;;0.40;0.40;;;19.10;99.90;19.80;101324.00;;;;5017269;28;20183;-64
2022/06/29 00:46:35;;;;;;;0.50;0.50;;;18.90;99.90;19.60;101319.00;;;;5034156;28;20182;-64
2022/06/29 00:49:42;;;;;;;0.40;0.40;;;18.80;99.90;19.80;101318.00;;;;5034507;28;20191;-63
2022/06/29 00:52:28;;;;;;;0.47;0.47;;;18.70;99.90;19.80;101299.00;;;;5034818;28;20203;-63
2022/06/29 00:55:37;;;;;;;0.40;0.40;;;18.80;99.90;19.70;101306.00;;;;5032611;28;20190;-63
2022/06/29 00:58:21;;;;;;;0.50;0.50;;;18.80;99.90;19.90;101319.00;;;;5033796;28;20179;-63
2022/06/29 01:01:08;;;;;;;0.53;0.53;;;18.80;99.90;19.50;101314.00;;;;5017263;28;20241;-63
2022/06/29 01:04:12;;;;;;;0.40;0.40;;;18.60;99.90;19.20;101306.00;;;;5033345;28;20245;-63
2022/06/29 01:07:18;;;;;;;0.47;0.47;;;18.50;99.90;19.30;101314.00;;;;5033392;28;20184;-63
2022/06/29 01:10:22;;;;;;;0.50;0.50;;;18.40;99.90;19.00;101313.00;;;;5033602;28;20190;-63
2022/06/29 01:13:27;;;;;;;0.40;0.40;;;18.40;99.90;19.10;101317.00;;;;5034697;28;20557;-63
2022/06/29 01:16:13;;;;;;;0.40;0.40;;;18.30;99.90;19.50;101321.00;;;;5034584;28;20194;-63
2022/06/29 01:19:36;;;;;;;0.40;0.40;;;18.40;99.90;19.40;101315.00;;;;5034163;28;20175;-63
2022/06/29 01:22:48;;;;;;;0.50;0.50;;;18.40;99.90;19.50;101317.00;;;;5034178;28;20188;-64
2022/06/29 01:25:56;;;;;;;0.40;0.40;;;18.50;99.90;19.30;101315.00;;;;5033226;28;20196;-63
2022/06/29 01:29:03;;;;;;;0.50;0.50;;;18.40;99.90;19.60;101314.00;;;;5032978;28;20550;-64
2022/06/29 01:32:11;;;;;;;0.40;0.40;;;18.50;99.90;19.40;101311.00;;;;5033841;28;20216;-64
2022/06/29 01:35:34;;;;;;;0.40;0.40;;;18.40;99.90;18.90;101306.00;;;;5032667;28;20660;-64
2022/06/29 01:38:33;;;;;;;0.40;0.40;;;18.30;99.90;19.40;101306.00;;;;5016604;28;20190;-64
2022/06/29 01:41:57;;;;;;;0.40;0.40;;;18.40;99.90;19.10;101306.00;;;;5032070;28;20195;-64
2022/06/29 01:45:06;;;;;;;0.40;0.40;;;18.30;99.90;18.70;101292.00;;;;5032836;28;20208;-64
2022/06/29 01:48:15;;;;;;;0.40;0.40;;;18.10;99.90;19.10;101301.00;;;;5032547;28;20192;-64
2022/06/29 01:51:16;;;;;;;0.40;0.40;;;18.10;99.90;19.20;101305.00;;;;5032780;28;20270;-64
2022/06/29 01:54:02;;;;;;;0.50;0.50;;;18.20;99.90;19.10;101296.00;;;;5032510;28;20191;-64
2022/06/29 01:57:03;;;;;;;0.40;0.40;;;18.20;99.90;19.10;101287.00;;;;5032599;28;20707;-64
2022/06/29 02:00:07;;;;;;;0.40;0.40;;;18.20;99.90;19.20;101290.00;;;;5033070;28;20185;-64
2022/06/29 02:02:40;;;;;;;0.50;0.50;;;18.20;99.90;19.10;101286.00;;;;5032056;28;20216;-64
2022/06/29 02:05:24;;;;;;;0.40;0.40;;;18.20;99.90;18.80;101285.00;;;;5032417;28;20714;-64
2022/06/29 02:08:14;;;;;;;0.40;0.40;;;18.00;99.90;18.70;101285.00;;;;5033306;28;20206;-64
2022/06/29 02:11:03;;;;;;;0.50;0.50;;;17.90;99.90;18.90;101288.00;;;;5033497;28;20236;-64
2022/06/29 02:13:48;;;;;;;0.40;0.40;;;17.90;99.90;18.90;101253.00;;;;5015682;28;20644;-64
2022/06/29 02:16:57;;;;;;;0.40;0.40;;;17.90;99.90;19.10;101274.00;;;;5031935;28;20632;-64
2022/06/29 02:19:25;;;;;;;0.40;0.40;;;17.90;99.90;18.70;101270.00;;;;5032517;28;20207;-64
2022/06/29 02:23:07;;;;;;;0.40;0.40;;;17.90;99.90;18.90;101275.00;;;;5032305;28;20651;-64
2022/06/29 02:29:53;;;;;;;0.40;0.40;;;17.90;99.90;18.80;101254.00;;;;4877948;29;20301;-64
2022/06/29 02:35:34;;;;;;;0.40;0.40;;;17.70;99.90;18.60;101254.00;;;;4883254;29;20231;-64
2022/06/29 02:38:03;;;;;;;0.50;0.50;;;17.70;99.90;18.70;101257.00;;;;4880471;29;20656;-64
2022/06/29 02:40:46;;;;;;;0.40;0.40;;;17.70;99.90;18.60;101261.00;;;;4896125;29;20193;-64
2022/06/29 02:43:45;;;;;;;0.40;0.40;;;17.60;99.90;18.40;101241.00;;;;4940034;28;20218;-64
2022/06/29 02:51:26;;;;;;;10.00;9.23;;;17.30;99.90;18.30;101270.00;;;;4915019;29;20207;-64
2022/06/29 02:54:35;;;;;;;0.40;0.40;;;17.40;99.90;18.50;101265.00;;;;4931821;29;20203;-64
2022/06/29 02:57:20;;;;;;;0.40;0.40;;;17.50;99.90;18.20;101258.00;;;;4918199;29;20282;-64
2022/06/29 02:59:53;;;;;;;0.50;0.50;;;17.50;99.90;18.50;101262.00;;;;4933596;29;20769;-64
2022/06/29 03:02:22;;;;;;;0.67;0.67;;;17.60;99.90;18.10;101249.00;;;;5031574;28;20204;-64
2022/06/29 03:04:47;;;;;;;0.60;0.60;;;17.40;99.90;17.90;101247.00;;;;5031523;28;20185;-64
2022/06/29 03:07:16;;;;;;;1.00;1.00;;;17.20;99.90;18.00;101243.00;;;;5032955;28;20722;-64
2022/06/29 03:09:44;;;;;;;0.50;0.50;;;17.00;99.90;18.10;101250.00;;;;5033124;28;20176;-64
2022/06/29 03:12:27;;;;;;;1.00;1.00;;;17.10;99.90;18.00;101220.00;;;;5031805;28;20234;-64
2022/06/29 03:15:11;;;;;;;0.60;0.60;;;17.10;99.90;18.10;101207.00;;;;5015043;28;20658;-65
2022/06/29 03:17:44;;;;;;;0.50;0.50;;;17.10;99.90;17.80;101210.00;;;;5033179;28;20184;-64
2022/06/29 03:20:13;;;;;;;0.53;0.53;;;17.00;99.90;17.90;101243.00;;;;5035847;28;20189;-64
2022/06/29 03:22:56;;;;;;;0.50;0.50;;;17.00;99.90;17.40;101240.00;;;;5019742;28;20209;-64
2022/06/29 03:26:00;;;;;;;0.50;0.50;;;16.80;99.90;17.50;101245.00;;;;5035158;28;20202;-64
2022/06/29 03:28:47;;;;;;;0.50;0.50;;;16.70;99.90;17.80;101242.00;;;;5036630;28;20189;-64
2022/06/29 03:31:19;;;;;;;0.50;0.50;;;16.80;99.90;18.00;101230.00;;;;5036186;28;20225;-64
2022/06/29 03:34:02;;;;;;;0.50;0.50;;;16.90;99.90;18.10;101238.00;;;;5014622;28;20534;-64
2022/06/29 03:40:31;;;;;;;0.60;0.60;;;17.00;99.90;17.70;101232.00;;;;5028669;28;20553;-64
2022/06/29 03:47:55;;;;;;;0.50;0.50;;;16.90;99.90;17.90;101235.00;;;;4975355;28;20216;-64
2022/06/29 03:50:21;;;;;;;0.60;0.60;;;17.20;99.90;18.10;101230.00;;;;4955985;29;20678;-64
2022/06/29 03:53:26;;;;;;;0.57;0.57;;;17.10;99.90;18.30;101223.00;;;;4939696;29;20331;-64
2022/06/29 03:57:07;;;;;;;0.60;0.60;;;17.20;99.90;18.40;101226.00;;;;4952331;28;20246;-64
2022/06/29 03:59:42;;;;;;;0.50;0.50;;;17.30;99.90;17.90;101224.00;;;;4929171;29;20759;-64
2022/06/29 04:03:03;;;;;;;0.50;0.50;;;17.20;99.90;18.50;101232.00;;;;4939828;29;20220;-64
2022/06/29 04:05:38;;;;;;;0.60;0.60;;;17.40;99.90;18.00;101234.00;;;;4939326;29;20201;-64
2022/06/29 04:08:27;;;;;;;0.60;0.60;;;17.30;99.90;18.50;101221.00;;;;4923742;29;20188;-64
2022/06/29 04:11:48;;;;;;;0.50;0.50;;;17.60;99.90;18.10;101231.00;;;;4923639;29;20196;-64
2022/06/29 04:14:09;;;;;;;0.50;0.50;;;17.40;99.90;18.00;101228.00;;;;4955180;28;20273;-64
2022/06/29 04:17:30;;;;;;;0.53;0.53;;;17.30;99.90;17.30;101221.00;;;;4966612;28;20674;-64
2022/06/29 04:21:07;;;;;;;0.50;0.50;;;17.10;99.90;17.90;101235.00;;;;5004604;28;20220;-64
2022/06/29 04:24:10;;;;;;;0.40;0.40;;;17.00;99.90;18.00;101231.00;;;;5015533;28;20187;-64
2022/06/29 04:27:12;;;;;;;0.50;0.50;;;17.30;99.90;18.40;101185.00;;;;5015702;28;20614;-64
2022/06/29 04:30:12;;;;;;;0.30;0.30;;;17.50;99.90;19.40;101221.00;;;;5015413;28;20216;-64
2022/06/29 04:33:18;;;;;;;0.30;0.30;;;18.20;99.90;19.20;101216.00;;;;5015344;28;20643;-64
2022/06/29 04:36:04;;;;;;;0.20;0.20;;;18.60;99.90;19.50;101211.00;;;;5015487;28;20188;-64
2022/06/29 04:38:47;;;;;;;0.20;0.20;;;18.80;99.90;20.80;101213.00;;;;5013920;28;20186;-64
2022/06/29 04:41:56;;;;;;;0.20;0.20;;;19.50;99.90;21.10;101213.00;;;;5013989;28;20246;-64
2022/06/29 04:45:03;;;;;;;0.13;0.13;;;20.10;99.90;22.70;101211.00;;;;5015207;28;20266;-64
2022/06/29 04:47:54;;;;;;;0.57;0.57;;;20.90;99.90;22.80;101246.00;;;;5014493;28;20215;-62
2022/06/29 04:50:39;;;;;;;0.10;0.10;;;21.80;99.90;23.50;101252.00;;;;5015045;28;20263;-63
2022/06/29 04:53:46;;;;;;;0.10;0.10;;;22.10;99.90;24.10;101279.00;;;;5014835;28;20245;-63
2022/06/29 04:56:57;;;;;;;0.10;0.10;;;22.50;99.90;26.10;101316.00;;;;5013809;28;20187;-63
2022/06/29 05:00:16;;;;;;;0.10;0.10;;;24.00;99.90;27.30;101332.00;;;;5013326;28;20203;-64
2022/06/29 05:03:19;;;;;;;0.25;0.25;;;24.70;99.90;28.40;101361.00;;;;5014973;28;20655;-64
2022/06/29 05:06:23;;;;;;;0.10;0.10;;;26.00;99.90;29.50;101360.00;;;;5014974;28;20176;-63
2022/06/29 05:09:35;;;;;;;0.10;0.10;;;27.30;99.90;25.30;101357.00;;;;5014012;28;20266;-63
2022/06/29 05:12:53;;;;;;;0.10;0.10;;;26.20;99.90;25.70;101345.00;;;;4996986;28;20203;-64
2022/06/29 05:15:57;;;;;;;0.10;0.10;;;25.60;99.90;27.20;101346.00;;;;5014837;28;20179;-64
2022/06/29 05:18:43;;;;;;;0.20;0.20;;;25.30;99.90;29.60;101371.00;;;;5013311;28;20228;-64
2022/06/29 05:21:44;;;;;;;0.10;0.10;;;26.90;99.90;30.10;101380.00;;;;5013620;28;20245;-64
2022/06/29 05:24:52;;;;;;;0.30;0.30;;;28.00;99.90;28.90;101383.00;;;;5013230;28;20197;-64
2022/06/29 05:27:59;;;;;;;0.10;0.10;;;28.30;99.90;27.60;101378.00;;;;5013706;28;20225;-64
2022/06/29 05:31:03;;;;;;;0.20;0.20;;;27.40;99.90;26.90;101359.00;;;;5014420;28;20191;-64
2022/06/29 05:33:54;;;;;;;0.30;0.30;;;26.30;99.90;29.10;101355.00;;;;5013644;28;20249;-64
2022/06/29 05:37:00;;;;;;;0.10;0.10;;;26.70;99.90;27.40;101363.00;;;;5012969;28;20191;-64
2022/06/29 05:39:53;;;;;;;0.10;0.10;;;26.60;99.90;28.60;101368.00;;;;5013431;28;20207;-64
2022/06/29 05:43:05;;;;;;;0.08;0.08;;;27.30;99.90;27.50;101366.00;;;;5013623;28;20209;-64
2022/06/29 05:45:51;;;;;;;0.10;0.10;;;27.20;99.90;29.00;101339.00;;;;5009557;28;20226;-64
2022/06/29 05:48:52;;;;;;;0.10;0.10;;;27.50;99.90;30.90;101370.00;;;;5013042;28;20258;-64
2022/06/29 05:51:56;;;;;;;0.10;0.10;;;28.20;99.90;27.10;101385.00;;;;5014203;28;20258;-64
2022/06/29 05:54:58;;;;;;;0.10;0.10;;;27.30;99.90;28.60;101381.00;;;;5012579;28;20278;-64
2022/06/29 05:57:45;;;;;;;0.10;0.10;;;26.70;99.90;30.50;101365.00;;;;5014023;28;20184;-64
2022/06/29 06:00:32;;;;;;;0.10;0.10;;;28.10;99.90;31.60;101363.00;;;;5014940;28;20183;-64
2022/06/29 06:03:19;;;;;;;0.10;0.10;;;29.50;99.90;29.30;101367.00;;;;4996370;28;20183;-64
2022/06/29 06:06:07;;;;;;;0.45;0.45;;;28.90;99.90;28.70;101380.00;;;;5012660;28;20175;-64
2022/06/29 06:08:53;;;;;;;0.30;0.30;;;28.10;99.90;27.90;101371.00;;;;5013930;28;20164;-64
2022/06/29 06:11:41;;;;;;;0.50;0.50;;;27.20;99.90;28.00;101345.00;;;;4996556;28;20179;-64
2022/06/29 06:14:34;;;;;;;0.10;0.10;;;26.90;99.90;27.70;101336.00;;;;4996097;28;20207;-64
2022/06/29 06:17:35;;;;;;;0.10;0.10;;;27.10;99.90;29.10;101373.00;;;;5012744;28;20176;-64
2022/06/29 06:20:36;;;;;;;0.10;0.10;;;27.80;99.90;28.30;101366.00;;;;5012725;28;20183;-64
2022/06/29 06:23:57;;;;;;;0.10;0.10;;;28.10;99.90;28.70;101361.00;;;;5011785;28;20227;-64
2022/06/29 06:27:21;;;;;;;4.28;0.82;;;27.90;99.90;30.30;101377.00;;;;5012850;28;20159;-64
2022/06/29 06:30:29;;;;;;;0.10;0.10;;;28.90;99.90;31.90;101373.00;;;;5013820;28;20192;-64
2022/06/29 06:33:31;;;;;;;0.57;0.57;;;29.50;99.90;32.50;101362.00;;;;5012234;28;20219;-65
2022/06/29 06:36:32;;;;;;;0.10;0.10;;;30.00;99.90;31.30;101347.00;;;;5012604;28;20175;-64
2022/06/29 06:39:33;;;;;;;0.08;0.08;;;30.30;99.90;29.70;101369.00;;;;5012208;28;20502;-64
2022/06/29 06:42:51;;;;;;;0.10;0.10;;;29.60;99.90;28.20;101394.00;;;;5012463;28;20209;-64
2022/06/29 06:46:13;;;;;;;0.20;0.20;;;28.40;99.90;28.30;101377.00;;;;5012197;28;20180;-64
2022/06/29 06:49:01;;;;;;;0.10;0.10;;;28.20;99.90;27.20;101370.00;;;;5031980;28;20183;-64
2022/06/29 06:52:11;;;;;;;;;;;;;;;;;;;;;
2022/06/29 06:55:28;;;;;;;0.10;0.10;;;27.10;99.90;30.60;101371.00;;;;5032907;28;20209;-63
2022/06/29 06:58:15;;;;;;;0.10;0.10;;;28.50;99.90;30.10;101368.00;;;;5013408;28;20187;-64
2022/06/29 07:01:18;;;;;;;0.10;0.10;;;29.10;99.90;26.80;101377.00;;;;5016239;28;20257;-63
2022/06/29 07:04:05;;;;;;;0.10;0.10;;;27.10;99.90;28.10;101371.00;;;;5020524;28;20187;-63
2022/06/29 07:07:00;;;;;;;0.10;0.10;;;27.60;99.90;30.60;101374.00;;;;5032019;28;20191;-64
2022/06/29 07:10:02;;;;;;;0.10;0.10;;;28.60;99.90;30.20;101375.00;;;;5015859;28;20179;-64
2022/06/29 07:12:48;;;;;;;0.20;0.20;;;29.30;99.90;32.30;101345.00;;;;5017079;28;20224;-64
2022/06/29 07:15:50;;;;;;;0.17;0.17;;;30.90;99.90;31.60;101359.00;;;;5016881;28;20177;-64
2022/06/29 07:18:53;;;;;;;0.10;0.10;;;31.30;99.90;33.00;101361.00;;;;5016740;28;20275;-64
2022/06/29 07:21:31;;;;;;;0.10;0.10;;;32.00;99.90;32.00;101360.00;;;;5033018;28;20205;-67
2022/06/29 07:24:35;;;;;;;0.10;0.10;;;31.70;99.30;29.70;101377.00;;;;5036444;28;20238;-66
2022/06/29 07:27:43;;;;;;;0.15;0.15;;;29.90;99.90;30.50;101368.00;;;;5020284;28;20345;-66
2022/06/29 07:30:51;;;;;;;0.30;0.30;;;30.20;99.90;29.20;101377.00;;;;5034613;28;20197;-66
2022/06/29 07:33:52;;;;;;;0.10;0.10;;;28.60;99.90;29.10;101387.00;;;;5044114;28;20198;-67
2022/06/29 07:36:59;;;;;;;0.10;0.10;;;28.50;99.90;30.10;101395.00;;;;5034732;28;20672;-67
2022/06/29 07:40:03;;;;;;;0.10;0.10;;;28.90;99.90;31.70;101374.00;;;;5034669;28;20241;-65
2022/06/29 07:43:04;;;;;;;0.10;0.10;;;29.80;99.90;31.40;101370.00;;;;5034354;28;20199;-67
2022/06/29 07:46:10;;;;;;;0.10;0.10;;;30.70;99.90;31.30;101362.00;;;;5017469;28;20190;-67
2022/06/29 07:48:44;;;;;;;0.10;0.10;;;30.50;99.90;27.20;101393.00;;;;5022938;28;20274;-69
2022/06/29 07:51:10;;;;;;;0.55;0.55;;;28.10;99.90;28.10;101379.00;;;;5034417;28;20187;-68
2022/06/29 07:53:38;;;;;;;0.10;0.10;;;27.90;99.90;29.10;101389.00;;;;5034848;28;20906;-68
2022/06/29 07:56:27;;;;;;;0.30;0.30;;;28.40;99.90;30.40;101379.00;;;;5018108;28;20198;-67
2022/06/29 07:58:53;;;;;;;0.98;0.95;;;29.40;99.90;29.70;101378.00;;;;5034914;28;20171;-65
2022/06/29 08:05:01;;;;;;;0.35;0.35;;;28.20;99.90;28.40;101402.00;;;;5034838;28;20218;-67
2022/06/29 08:08:23;;;;;;;0.10;0.10;;;28.00;99.90;27.90;101395.00;;;;5034792;28;20236;-67
2022/06/29 08:10:52;;;;;;;0.20;0.20;;;27.70;99.90;28.10;101392.00;;;;5033473;28;20201;-68
2022/06/29 08:13:29;;;;;;;0.10;0.10;;;27.80;99.90;31.10;101375.00;;;;5018290;28;20618;-68
2022/06/29 08:16:13;;;;;;;1.05;1.05;;;29.20;99.90;28.90;101369.00;;;;5016077;28;20195;-68
2022/06/29 08:19:21;;;;;;;0.10;0.10;;;28.40;99.90;29.90;101387.00;;;;5014507;28;20266;-68
2022/06/29 08:21:49;;;;;;;0.10;0.10;;;28.70;99.90;27.70;101396.00;;;;5016804;28;20210;-67
2022/06/29 08:24:15;;;;;;;0.10;0.10;;;27.60;99.90;31.30;101350.00;;;;5014663;28;20178;-68
2022/06/29 08:27:02;;;;;;;0.10;0.10;;;29.30;99.90;32.40;101355.00;;;;5018289;28;20194;-68
2022/06/29 08:29:49;;;;;;;0.10;0.10;;;31.50;99.20;30.10;101345.00;;;;5017742;28;20665;-69
2022/06/29 08:32:35;;;;;;;0.10;0.10;;;29.90;99.30;31.20;101376.00;;;;5030647;28;20199;-68
2022/06/29 08:35:21;;;;;;;0.00;0.00;;;29.70;99.90;31.50;101351.00;;;;5028312;28;20547;-68
2022/06/29 08:38:22;;;;;;;0.10;0.10;;;30.60;98.30;29.20;101380.00;;;;5028533;28;20651;-68
2022/06/29 08:45:22;;;;;;;0.10;0.10;;;30.40;98.90;32.40;101344.00;;;;5027788;28;20196;-67
2022/06/29 08:48:31;;;;;;;0.10;0.10;;;31.50;96.30;30.80;101334.00;;;;5029073;28;20237;-68
2022/06/29 08:51:37;;;;;;;0.10;0.10;;;30.80;96.20;30.20;101368.00;;;;5013453;28;20191;-67
2022/06/29 08:54:44;;;;;;;0.10;0.10;;;29.90;96.90;29.30;101384.00;;;;5030158;28;20207;-67
2022/06/29 08:57:31;;;;;;;4.53;4.28;;;29.00;97.70;32.20;101368.00;;;;5030190;28;20180;-67
2022/06/29 09:00:36;;;;;;;0.05;0.05;;;30.30;98.30;33.70;101344.00;;;;5030443;28;20199;-68
2022/06/29 09:03:21;;;;;;;0.10;0.10;;;32.30;96.10;33.50;101314.00;;;;5014682;28;20202;-67
2022/06/29 09:06:10;;;;;;;0.00;0.00;;;32.30;94.10;35.00;101342.00;;;;5030042;28;20211;-68
2022/06/29 09:09:14;;;;;;;0.10;0.10;;;33.60;93.80;30.50;101347.00;;;;5013484;28;20179;-66
2022/06/29 09:12:03;;;;;;;0.50;0.50;;;31.90;92.80;29.40;101369.00;;;;5014625;28;20175;-65
2022/06/29 09:14:49;;;;;;;0.50;0.50;;;29.90;94.70;28.60;101378.00;;;;5029979;28;20182;-65
2022/06/29 09:17:43;;;;;;;0.10;0.10;;;28.80;95.70;28.70;101358.00;;;;5028990;28;20196;-66
2022/06/29 09:20:39;;;;;;;1.95;1.85;;;28.60;97.20;30.90;101388.00;;;;5014883;28;20179;-66
2022/06/29 09:23:43;;;;;;;0.10;0.10;;;29.10;98.00;28.30;101393.00;;;;5029823;28;20298;-66
2022/06/29 09:26:49;;;;;;;0.10;0.10;;;28.70;94.80;31.50;101351.00;;;;5013906;28;20197;-67
2022/06/29 09:30:05;;;;;;;0.10;0.10;;;29.50;96.10;33.80;101365.00;;;;5013614;28;20221;-67
2022/06/29 09:33:04;;;;;;;0.10;0.10;;;32.40;93.20;33.00;101364.00;;;;5013729;28;20199;-67
2022/06/29 09:36:12;;;;;;;0.10;0.10;;;32.20;91.00;30.80;101337.00;;;;5029671;28;20191;-67
2022/06/29 09:39:23;;;;;;;0.43;0.13;;;31.40;90.80;28.50;101374.00;;;;5014408;28;20541;-67
2022/06/29 09:42:30;;;;;;;0.10;0.10;;;29.40;92.80;28.40;101380.00;;;;5012869;28;20205;-67
2022/06/29 09:45:33;;;;;;;1.52;0.50;;;28.20;93.40;28.30;101377.00;;;;5028691;28;20222;-67
2022/06/29 09:48:22;;;;;;;0.10;0.10;;;27.80;95.10;30.60;101373.00;;;;5013079;28;20183;-67
2022/06/29 09:51:32;;;;;;;0.08;0.08;;;29.00;95.40;33.40;101336.00;;;;5029432;28;20180;-68
2022/06/29 09:54:21;;;;;;;0.20;0.20;;;31.60;93.30;32.70;101351.00;;;;5012894;28;20275;-65
2022/06/29 09:57:28;;;;;;;0.13;0.13;;;31.50;93.00;34.30;101356.00;;;;5013717;28;20207;-66
2022/06/29 10:03:32;;;;;;;0.10;0.10;;;30.70;91.70;29.70;101370.00;;;;5026596;28;20218;-66
2022/06/29 10:06:19;;;;;;;0.10;0.10;;;29.70;92.80;31.70;101375.00;;;;5012890;28;20239;-66
2022/06/29 10:09:07;;;;;;;1.20;0.65;;;30.20;92.90;29.30;101377.00;;;;5028938;28;20191;-67
2022/06/29 10:14:49;;;;;;;0.30;0.30;;;29.10;92.40;32.50;101328.00;;;;5013678;28;20217;-67
2022/06/29 10:17:53;;;;;;;0.10;0.10;;;30.80;91.50;29.30;101364.00;;;;5013561;28;20221;-67
2022/06/29 10:33:32;;;;;;;0.15;0.15;;;30.40;86.70;29.00;101350.00;;;;5070546;28;20552;-67
2022/06/29 10:37:11;;;;;;;0.80;0.47;;;29.10;90.40;28.90;101355.00;;;;5050678;28;20226;-67
2022/06/29 10:39:45;;;;;;;0.10;0.10;;;28.70;90.40;29.60;101351.00;;;;5042173;28;20186;-67
2022/06/29 10:45:54;;;;;;;0.95;0.60;;;28.70;90.70;30.40;101347.00;;;;5050204;28;20633;-67
2022/06/29 10:49:20;;;;;;;0.10;0.10;;;30.20;89.20;30.40;101347.00;;;;5021066;28;20241;-67
2022/06/29 10:52:22;;;;;;;0.10;0.10;;;30.30;89.30;30.10;101348.00;;;;5046985;28;20253;-67
2022/06/29 10:55:25;;;;;;;0.10;0.10;;;29.50;89.00;33.50;101328.00;;;;5032711;28;20637;-68
2022/06/29 10:58:26;;;;;;;0.10;0.10;;;31.00;90.50;32.50;101308.00;;;;5049050;28;20174;-69
2022/06/29 11:01:31;;;;;;;0.10;0.10;;;32.00;85.30;33.50;101324.00;;;;5049365;28;20696;-67
2022/06/29 11:04:21;;;;;;;0.63;0.30;;;31.90;86.50;31.20;101336.00;;;;5050095;28;20189;-67
2022/06/29 11:13:58;;;;;;;0.10;0.10;;;32.10;85.00;34.10;101324.00;;;;5048777;28;20620;-67
2022/06/29 11:16:52;;;;;;;1.52;0.63;;;32.40;85.50;30.50;101303.00;;;;5048729;28;20179;-67
2022/06/29 11:19:56;;;;;;;0.10;0.10;;;31.90;80.70;31.20;101337.00;;;;5049048;28;20228;-67
2022/06/29 11:22:54;;;;;;;0.10;0.10;;;30.40;84.00;32.60;101310.00;;;;5048899;28;20162;-67
2022/06/29 11:25:56;;;;;;;0.10;0.10;;;31.70;83.20;34.00;101320.00;;;;5032442;28;20543;-68
2022/06/29 11:29:03;;;;;;;0.30;0.30;;;32.40;82.70;29.80;101328.00;;;;5031810;28;20609;-67
2022/06/29 11:32:09;;;;;;;1.40;0.70;;;30.50;81.40;30.20;101337.00;;;;5048405;28;20232;-68
2022/06/29 11:34:58;;;;;;;0.10;0.10;;;30.30;82.10;31.50;101335.00;;;;5049047;28;20225;-67
2022/06/29 11:38:08;;;;;;;0.10;0.10;;;30.60;83.30;31.30;101331.00;;;;5048422;28;20720;-67
2022/06/29 11:40:54;;;;;;;0.10;0.10;;;30.60;83.50;31.90;101323.00;;;;5046692;28;20285;-67
2022/06/29 11:44:00;;;;;;;0.10;0.10;;;30.90;84.20;33.50;101311.00;;;;5042873;28;20179;-68
2022/06/29 11:46:47;;;;;;;0.20;0.20;;;32.50;82.60;29.70;101323.00;;;;5018534;28;20179;-68
2022/06/29 11:49:51;;;;;;;0.10;0.10;;;30.70;80.90;30.90;101336.00;;;;5034877;28;20162;-68
2022/06/29 11:52:37;;;;;;;0.10;0.10;;;30.30;84.00;32.20;101320.00;;;;5035116;28;20232;-68
2022/06/29 11:55:42;;;;;;;0.10;0.10;;;30.90;83.10;29.90;101324.00;;;;5036039;28;20179;-68
2022/06/29 11:58:43;;;;;;;0.77;0.47;;;30.30;82.60;30.50;101316.00;;;;5017851;28;20209;-68
2022/06/29 12:01:53;;;;;;;0.10;0.10;;;30.10;82.20;31.50;101324.00;;;;5034762;28;20222;-67
2022/06/29 12:08:49;;;;;;;0.10;0.10;;;31.20;80.80;33.70;101296.00;;;;5036071;28;20191;-67
2022/06/29 12:12:17;;;;;;;0.22;0.20;;;31.80;81.60;31.60;101310.00;;;;5034136;28;20216;-67
2022/06/29 12:15:20;;;;;;;0.30;0.30;;;31.10;81.90;30.20;101313.00;;;;5034245;28;20225;-67
2022/06/29 12:18:22;;;;;;;0.10;0.10;;;30.00;81.90;29.80;101308.00;;;;5018044;28;20244;-66
2022/06/29 12:21:09;;;;;;;0.17;0.17;;;29.50;82.00;30.10;101306.00;;;;5034099;28;20170;-66
2022/06/29 12:24:10;;;;;;;0.25;0.25;;;29.40;82.60;29.50;101284.00;;;;5017822;28;20595;-67
2022/06/29 12:27:11;;;;;;;0.52;0.52;;;29.10;81.60;29.50;101315.00;;;;5033838;28;20228;-67
2022/06/29 12:30:12;;;;;;;0.50;0.50;;;28.90;83.50;29.70;101296.00;;;;5017539;28;20277;-67
2022/06/29 12:33:13;;;;;;;0.10;0.10;;;28.90;84.70;30.10;101300.00;;;;5033838;28;20305;-67
2022/06/29 12:36:04;;;;;;;0.10;0.10;;;28.90;85.90;30.10;101308.00;;;;5033805;28;20185;-67
2022/06/29 12:38:57;;;;;;;0.63;0.60;;;29.10;87.20;30.10;101312.00;;;;5034274;28;20290;-67
2022/06/29 12:42:01;;;;;;;0.10;0.10;;;29.20;86.50;29.40;101306.00;;;;5033984;28;20258;-67
2022/06/29 12:45:04;;;;;;;0.10;0.10;;;28.50;87.60;28.80;101309.00;;;;5034184;28;20281;-67
2022/06/29 12:48:08;;;;;;;0.10;0.10;;;28.00;88.60;28.10;101314.00;;;;5033735;28;20187;-68
2022/06/29 12:50:52;;;;;;;0.10;0.10;;;27.70;89.10;29.90;101308.00;;;;5017828;28;20182;-67
2022/06/29 12:53:56;;;;;;;0.20;0.20;;;28.20;90.30;30.00;101306.00;;;;5033911;28;20179;-67
2022/06/29 12:56:51;;;;;;;0.30;0.30;;;28.40;90.40;29.10;101305.00;;;;5032486;28;20277;-67
2022/06/29 12:59:51;;;;;;;0.85;0.50;;;28.40;85.70;29.10;101277.00;;;;5034729;28;20257;-67
2022/06/29 13:02:39;;;;;;;0.80;0.57;;;28.30;85.70;28.60;101307.00;;;;5033484;28;20215;-67
2022/06/29 13:06:01;;;;;;;0.10;0.10;;;28.00;85.20;29.60;101306.00;;;;5033416;28;20225;-67
2022/06/29 13:08:49;;;;;;;0.25;0.25;;;28.20;86.60;28.80;101294.00;;;;5034790;28;20705;-67
2022/06/29 13:11:51;;;;;;;0.32;0.32;;;28.20;84.20;29.80;101280.00;;;;5033256;28;20198;-67
2022/06/29 13:14:53;;;;;;;0.10;0.10;;;28.40;85.30;29.70;101285.00;;;;5034667;28;20184;-67
2022/06/29 13:17:55;;;;;;;1.17;0.40;;;28.60;86.90;29.00;101293.00;;;;5016622;28;20183;-67
2022/06/29 13:21:05;;;;;;;0.40;0.40;;;28.10;85.90;29.50;101272.00;;;;5033171;28;20269;-67
2022/06/29 13:23:50;;;;;;;3.20;0.55;;;28.20;86.20;28.50;101286.00;;;;5032814;28;20274;-68
2022/06/29 13:26:51;;;;;;;0.10;0.10;;;27.90;85.40;29.90;101279.00;;;;5049424;28;20187;-67
2022/06/29 13:30:10;;;;;;;0.10;0.10;;;28.20;86.10;30.30;101276.00;;;;5032990;28;20684;-67
2022/06/29 13:33:16;;;;;;;0.28;0.28;;;28.70;85.30;29.40;101270.00;;;;5032352;28;20325;-67
2022/06/29 13:36:20;;;;;;;0.13;0.13;;;28.70;84.80;29.80;101278.00;;;;5035391;28;20194;-68
2022/06/29 13:39:22;;;;;;;0.17;0.17;;;28.80;86.20;29.50;101271.00;;;;5033236;28;20521;-68
2022/06/29 13:42:23;;;;;;;0.10;0.10;;;28.60;85.20;30.00;101268.00;;;;5032371;28;20178;-67
2022/06/29 13:45:09;;;;;;;0.10;0.10;;;28.60;86.70;30.40;101261.00;;;;5032411;28;20195;-68
2022/06/29 13:48:28;;;;;;;0.17;0.17;;;28.80;85.80;29.60;101257.00;;;;5032897;28;20649;-68
2022/06/29 13:51:30;;;;;;;0.10;0.10;;;28.50;86.30;29.80;101261.00;;;;5032514;28;20262;-67
2022/06/29 13:54:23;;;;;;;0.50;0.40;;;28.40;85.70;30.50;101266.00;;;;5032426;28;20194;-68
2022/06/29 13:57:23;;;;;;;0.10;0.10;;;28.80;85.40;29.60;101256.00;;;;5032506;28;20286;-68
2022/06/29 14:00:07;;;;;;;0.10;0.10;;;28.60;85.60;29.50;101261.00;;;;5032655;28;20185;-67